Country
Station

 

Weather  for  Farnborough  -  United Kingdom    United Kingdom

  
10 °C (50 °F)
    
 
 

Current METAR for Farnborough is :

EGLF 191350Z 25009KT 220V290 9999 FEW031 SCT042 10/04 Q1019

 

This is a report for Farnborough - United Kingdom.
 
The report was made 22 minutes ago, at 13:50 UTC .
The wind was blowing at a speed of 4.6 meters per second (10.4 miles per hour) from west/southwest (250°), varying between southwest (220°) and west/northwest (290°).
 
The temperature was 10 °C (50 °F), with a dew-point at 4 °C (39 °F).
The atmospheric pressure was 1019 hPa (30.09 inHg).
The relative humidity was 66.2%.
 
There were a few clouds at a height of 945 meters (3100 feet) and scattered clouds at a height of 1280 meters (4200 feet).
 
The overall visibility was greater than 10 kilometers (6.2 miles).
 

 
 
 
 

Country :   A   B   C   D   E   F   G   H   I   J   K   L   M   N   O   P   Q   R   S   T   U   V   W   Y   Z

 

Site Info  |  Disclaimer  |  Credits  |  Privacy
Contact us  |  Add to favorites
© 2013-2019 METARs - All rights reserved